createdAt,value
2022-09-03T00:02:36.940Z,99.90
2022-09-03T00:12:36.683Z,99.90
2022-09-03T00:15:15.143Z,99.90
2022-09-03T00:17:52.899Z,99.90
2022-09-03T00:20:31.672Z,99.90
2022-09-03T00:23:04.712Z,99.90
2022-09-03T00:25:47.316Z,99.90
2022-09-03T00:31:23.872Z,99.90
2022-09-03T00:34:03.009Z,99.90
2022-09-03T00:36:42.089Z,99.90
2022-09-03T00:39:15.626Z,99.90
2022-09-03T00:41:52.555Z,99.90
2022-09-03T00:44:38.935Z,99.90
2022-09-03T00:54:31.308Z,99.90
2022-09-03T00:57:34.085Z,99.90
2022-09-03T01:00:09.340Z,99.90
2022-09-03T01:02:59.833Z,99.90
2022-09-03T01:06:12.071Z,99.90
2022-09-03T01:09:17.900Z,99.90
2022-09-03T01:17:29.476Z,99.90
2022-09-03T01:20:06.464Z,99.90
2022-09-03T01:23:05.293Z,99.90
2022-09-03T01:26:11.507Z,99.90
2022-09-03T01:28:49.947Z,99.90
2022-09-03T01:31:29.219Z,99.90
2022-09-03T01:39:33.902Z,99.90
2022-09-03T01:42:29.857Z,99.90
2022-09-03T01:45:21.229Z,99.90
2022-09-03T01:48:14.566Z,99.90
2022-09-03T01:50:59.550Z,99.90
2022-09-03T01:53:58.369Z,99.90
2022-09-03T02:15:30.874Z,99.90
2022-09-03T02:18:03.369Z,99.90
2022-09-03T02:20:30.943Z,99.90
2022-09-03T02:22:59.401Z,99.90
2022-09-03T02:25:35.992Z,99.90
2022-09-03T02:28:05.136Z,99.90
2022-09-03T02:30:38.093Z,99.90
2022-09-03T02:38:27.128Z,99.90
2022-09-03T02:40:54.787Z,99.90
2022-09-03T02:43:35.677Z,99.90
2022-09-03T02:46:06.771Z,99.90
2022-09-03T02:48:35.095Z,99.90
2022-09-03T02:51:02.416Z,99.90
2022-09-03T02:53:42.472Z,99.90
2022-09-03T03:00:38.677Z,99.90
2022-09-03T03:03:06.889Z,99.90
2022-09-03T03:05:52.812Z,99.90
2022-09-03T03:08:24.870Z,99.90
2022-09-03T03:11:09.663Z,99.90
2022-09-03T03:13:37.114Z,99.90
2022-09-03T03:16:08.740Z,99.90
2022-09-03T03:21:17.999Z,99.90
2022-09-03T03:23:45.840Z,99.90
2022-09-03T03:26:19.349Z,99.90
2022-09-03T03:28:48.938Z,99.90
2022-09-03T03:31:19.512Z,99.90
2022-09-03T03:33:54.665Z,99.90
2022-09-03T03:36:23.714Z,99.90
2022-09-03T03:44:06.766Z,99.90
2022-09-03T03:46:39.689Z,99.90
2022-09-03T03:49:08.239Z,99.90
2022-09-03T03:51:37.179Z,99.90
2022-09-03T03:54:05.625Z,99.90
2022-09-03T03:56:34.496Z,99.90
2022-09-03T03:59:02.294Z,99.90
2022-09-03T04:05:46.211Z,99.90
2022-09-03T04:08:19.238Z,99.90
2022-09-03T04:10:50.187Z,99.90
2022-09-03T04:13:18.127Z,99.90
2022-09-03T04:15:45.443Z,99.90
2022-09-03T04:18:13.839Z,99.90
2022-09-03T04:20:40.857Z,99.90
2022-09-03T04:28:08.471Z,99.90
2022-09-03T04:30:36.770Z,99.90
2022-09-03T04:33:06.705Z,99.90
2022-09-03T04:35:46.298Z,99.90
2022-09-03T04:38:13.327Z,99.90
2022-09-03T04:40:40.231Z,99.90
2022-09-03T04:43:07.928Z,99.90
2022-09-03T04:59:46.872Z,99.90
2022-09-03T05:02:14.990Z,99.90
2022-09-03T05:04:46.697Z,99.90
2022-09-03T05:07:18.993Z,99.90
2022-09-03T05:09:51.180Z,99.90
2022-09-03T05:12:18.424Z,99.90
2022-09-03T05:14:45.320Z,99.90
2022-09-03T05:22:22.306Z,99.90
2022-09-03T05:24:50.677Z,99.90
2022-09-03T05:27:21.224Z,99.90
2022-09-03T05:29:50.256Z,99.90
2022-09-03T05:32:19.846Z,99.90
2022-09-03T05:34:46.835Z,99.90
2022-09-03T05:37:14.564Z,99.90
2022-09-03T06:13:20.436Z,99.90
2022-09-03T06:15:47.577Z,99.90
2022-09-03T06:18:14.628Z,99.90
2022-09-03T06:20:42.430Z,99.90
2022-09-03T06:23:10.072Z,99.90
2022-09-03T06:25:37.758Z,99.90
2022-09-03T06:28:09.045Z,99.90
2022-09-03T06:30:37.655Z,99.90
2022-09-03T06:37:19.339Z,98.70
2022-09-03T06:39:46.880Z,93.60
2022-09-03T06:42:14.458Z,94.40
2022-09-03T06:44:45.114Z,94.50
2022-09-03T06:47:12.386Z,90.90
2022-09-03T06:49:44.363Z,89.60
2022-09-03T06:52:11.605Z,90.00
2022-09-03T06:59:44.621Z,87.10
2022-09-03T07:02:12.111Z,86.80
2022-09-03T07:04:39.546Z,86.80
2022-09-03T07:07:12.745Z,81.10
2022-09-03T07:09:43.059Z,82.10
2022-09-03T07:12:15.380Z,77.80
2022-09-03T07:14:42.994Z,74.00
2022-09-03T07:17:10.304Z,72.40
2022-09-03T07:24:39.195Z,71.60
2022-09-03T07:27:11.807Z,67.30
2022-09-03T07:29:41.289Z,67.50
2022-09-03T07:32:09.182Z,65.60
2022-09-03T07:34:36.764Z,66.00
2022-09-03T07:37:05.248Z,65.90
2022-09-03T07:39:34.062Z,65.50
2022-09-03T07:47:06.512Z,63.20
2022-09-03T07:49:34.011Z,62.10
2022-09-03T07:52:01.612Z,61.90
2022-09-03T07:54:28.877Z,61.10
2022-09-03T07:56:56.450Z,61.30
2022-09-03T07:59:25.905Z,59.90
2022-09-03T08:01:53.003Z,60.70
2022-09-03T08:09:32.995Z,57.00
2022-09-03T08:12:00.219Z,53.90
2022-09-03T08:14:29.828Z,53.50
2022-09-03T08:16:59.796Z,53.20
2022-09-03T08:19:27.190Z,51.30
2022-09-03T08:21:54.318Z,49.90
2022-09-03T08:24:24.113Z,49.40
2022-09-03T08:31:30.666Z,47.90
2022-09-03T08:34:06.068Z,46.30
2022-09-03T08:36:38.429Z,46.20
2022-09-03T08:39:10.882Z,44.30
2022-09-03T08:41:50.573Z,43.30
2022-09-03T08:44:48.668Z,41.60
2022-09-03T08:47:18.228Z,42.00
2022-09-03T08:55:07.659Z,39.40
2022-09-03T08:57:42.569Z,36.30
2022-09-03T09:00:10.392Z,36.80
2022-09-03T09:03:07.729Z,36.10
2022-09-03T09:06:06.742Z,35.90
2022-09-03T09:08:47.973Z,35.30
2022-09-03T09:14:42.610Z,35.70
2022-09-03T09:17:42.085Z,35.80
2022-09-03T09:20:26.470Z,35.00
2022-09-03T09:23:08.397Z,34.20
2022-09-03T09:25:49.731Z,34.10
2022-09-03T09:28:21.950Z,33.50
2022-09-03T09:30:52.057Z,32.90
2022-09-03T09:38:55.787Z,33.10
2022-09-03T09:41:29.131Z,31.40
2022-09-03T09:44:05.449Z,31.30
2022-09-03T09:46:40.676Z,32.00
2022-09-03T09:49:37.347Z,30.30
2022-09-03T09:52:13.174Z,31.60
2022-09-03T09:54:42.674Z,31.90
2022-09-03T10:02:29.690Z,31.80
2022-09-03T10:05:13.886Z,31.80
2022-09-03T10:07:40.903Z,31.70
2022-09-03T10:10:14.394Z,32.80
2022-09-03T10:12:46.562Z,32.50
2022-09-03T10:15:44.947Z,32.80
2022-09-03T10:22:20.220Z,31.30
2022-09-03T10:24:59.156Z,31.00
2022-09-03T10:27:28.708Z,30.90
2022-09-03T10:30:00.122Z,30.70
2022-09-03T10:32:37.973Z,30.50
2022-09-03T10:35:37.770Z,31.00
2022-09-03T10:42:07.692Z,31.00
2022-09-03T10:44:57.533Z,32.60
2022-09-03T10:47:39.844Z,31.60
2022-09-03T10:50:22.911Z,32.50
2022-09-03T10:53:20.655Z,32.40
2022-09-03T10:56:06.395Z,32.40
2022-09-03T11:04:43.860Z,31.80
2022-09-03T11:07:17.554Z,30.30
2022-09-03T11:10:08.345Z,30.00
2022-09-03T11:12:51.237Z,30.10
2022-09-03T11:15:30.769Z,29.90
2022-09-03T11:18:37.756Z,30.40
2022-09-03T11:26:12.376Z,29.90
2022-09-03T11:28:50.239Z,30.00
2022-09-03T11:31:31.737Z,31.00
2022-09-03T11:34:13.683Z,32.30
2022-09-03T11:36:48.029Z,32.30
2022-09-03T11:39:27.231Z,32.70
2022-09-03T11:42:10.118Z,32.20
2022-09-03T11:47:39.722Z,30.40
2022-09-03T11:50:23.664Z,31.10
2022-09-03T11:52:53.686Z,32.60
2022-09-03T11:55:37.513Z,33.70
2022-09-03T11:58:20.424Z,34.00
2022-09-03T12:00:52.731Z,33.90
2022-09-03T12:09:14.762Z,35.30
2022-09-03T12:12:18.908Z,36.80
2022-09-03T12:15:34.380Z,37.40
2022-09-03T12:18:20.048Z,38.20
2022-09-03T12:20:59.834Z,37.70
2022-09-03T12:28:48.824Z,38.90
2022-09-03T12:31:46.431Z,40.40
2022-09-03T12:34:17.655Z,42.20
2022-09-03T12:36:48.772Z,42.00
2022-09-03T12:40:04.910Z,41.50
2022-09-03T12:42:20.245Z,41.90
2022-09-03T12:44:48.275Z,42.70
2022-09-03T12:52:36.295Z,44.00
2022-09-03T12:55:27.433Z,44.10
2022-09-03T12:58:02.533Z,44.00
2022-09-03T13:00:33.827Z,44.20
2022-09-03T13:03:09.817Z,44.60
2022-09-03T13:05:52.097Z,44.60
2022-09-03T13:14:15.116Z,43.40
2022-09-03T13:16:47.445Z,44.60
2022-09-03T13:19:56.088Z,44.40
2022-09-03T13:22:45.217Z,44.20
2022-09-03T13:25:37.070Z,45.10
2022-09-03T13:28:22.069Z,44.90
2022-09-03T13:33:43.196Z,45.20
2022-09-03T13:36:14.516Z,45.60
2022-09-03T13:38:45.391Z,45.50
2022-09-03T13:41:46.433Z,45.20
2022-09-03T13:44:27.394Z,44.90
2022-09-03T13:47:08.016Z,44.60
2022-09-03T13:57:47.411Z,44.60
2022-09-03T14:00:26.469Z,44.70
2022-09-03T14:03:24.257Z,45.00
2022-09-03T14:06:14.501Z,45.30
2022-09-03T14:09:11.922Z,45.10
2022-09-03T14:14:54.852Z,44.80
2022-09-03T14:17:25.397Z,44.60
2022-09-03T14:20:18.690Z,44.40
2022-09-03T14:22:58.787Z,44.40
2022-09-03T14:25:27.339Z,44.70
2022-09-03T14:28:12.333Z,44.50
2022-09-03T14:30:55.622Z,44.30
2022-09-03T14:36:55.182Z,45.10
2022-09-03T14:39:46.556Z,44.40
2022-09-03T14:42:47.414Z,44.40
2022-09-03T14:45:52.276Z,44.00
2022-09-03T14:48:45.442Z,44.30
2022-09-03T14:51:36.818Z,44.70
2022-09-03T14:59:24.404Z,45.10
2022-09-03T15:02:36.165Z,45.00
2022-09-03T15:05:24.892Z,45.00
2022-09-03T15:07:55.221Z,45.60
2022-09-03T15:10:40.821Z,45.20
2022-09-03T15:13:30.179Z,45.10
2022-09-03T15:21:40.051Z,45.50
2022-09-03T15:24:19.738Z,46.00
2022-09-03T15:26:52.493Z,45.60
2022-09-03T15:29:41.556Z,45.90
2022-09-03T15:32:32.781Z,46.60
2022-09-03T15:35:10.682Z,46.60
2022-09-03T15:37:47.543Z,46.60
2022-09-03T15:43:22.676Z,49.50
2022-09-03T15:45:59.349Z,50.90
2022-09-03T15:48:36.382Z,50.90
2022-09-03T15:51:15.820Z,52.20
2022-09-03T15:54:27.499Z,53.30
2022-09-03T15:57:19.984Z,51.30
2022-09-03T16:05:07.145Z,50.80
2022-09-03T16:07:37.594Z,51.10
2022-09-03T16:10:26.469Z,51.20
2022-09-03T16:13:12.883Z,50.30
2022-09-03T16:16:04.693Z,50.80
2022-09-03T16:18:35.480Z,51.30
2022-09-03T16:26:56.402Z,52.20
2022-09-03T16:29:30.483Z,52.30
2022-09-03T16:32:18.872Z,52.20
2022-09-03T16:34:54.081Z,52.60
2022-09-03T16:37:35.995Z,53.00
2022-09-03T16:40:33.684Z,53.10
2022-09-03T16:46:32.745Z,53.50
2022-09-03T16:49:26.261Z,53.40
2022-09-03T16:52:10.310Z,53.80
2022-09-03T16:54:56.101Z,54.30
2022-09-03T16:57:36.055Z,55.00
2022-09-03T17:00:14.636Z,55.80
2022-09-03T17:06:09.888Z,56.70
2022-09-03T17:09:12.238Z,56.80
2022-09-03T17:12:05.629Z,56.70
2022-09-03T17:15:17.188Z,56.70
2022-09-03T17:17:59.601Z,57.10
2022-09-03T17:20:55.196Z,57.20
2022-09-03T17:29:52.741Z,58.30
2022-09-03T17:32:31.898Z,59.40
2022-09-03T17:35:18.213Z,59.80
2022-09-03T17:38:04.511Z,60.20
2022-09-03T17:40:39.019Z,61.40
2022-09-03T17:43:24.155Z,62.10
2022-09-03T17:45:58.296Z,62.40
2022-09-03T17:53:31.393Z,62.90
2022-09-03T17:56:19.794Z,63.20
2022-09-03T17:59:15.948Z,63.40
2022-09-03T18:02:00.279Z,63.90
2022-09-03T18:04:43.887Z,64.70
2022-09-03T18:08:09.648Z,64.50
2022-09-03T18:14:16.070Z,64.30
2022-09-03T18:17:06.387Z,64.40
2022-09-03T18:20:02.701Z,64.70
2022-09-03T18:23:17.733Z,64.70
2022-09-03T18:26:08.523Z,64.90
2022-09-03T18:29:00.333Z,65.20
2022-09-03T18:34:52.002Z,65.00
2022-09-03T18:37:44.199Z,64.60
2022-09-03T18:40:44.015Z,64.60
2022-09-03T18:43:51.296Z,65.00
2022-09-03T18:50:31.772Z,65.20
2022-09-03T18:58:43.289Z,66.50
2022-09-03T19:01:51.518Z,68.30
2022-09-03T19:05:05.755Z,69.00
2022-09-03T19:08:27.036Z,69.60
2022-09-03T19:11:39.127Z,70.60
2022-09-03T19:14:55.707Z,72.60
2022-09-03T19:21:36.787Z,76.40
2022-09-03T19:24:22.088Z,83.30
2022-09-03T19:27:54.234Z,80.70
2022-09-03T19:31:10.700Z,81.00
2022-09-03T19:34:34.284Z,79.80
2022-09-03T19:37:26.810Z,78.00
2022-09-03T19:45:54.001Z,76.40
2022-09-03T19:49:05.458Z,75.90
2022-09-03T19:52:11.179Z,75.60
2022-09-03T19:54:59.833Z,77.10
2022-09-03T19:57:48.252Z,77.20
2022-09-03T20:00:35.440Z,76.20
2022-09-03T20:08:22.506Z,76.00
2022-09-03T20:10:55.953Z,77.50
2022-09-03T20:13:23.480Z,78.50
2022-09-03T20:16:29.498Z,79.50
2022-09-03T20:19:18.810Z,81.90
2022-09-03T20:22:28.640Z,82.30
2022-09-03T20:30:27.361Z,84.40
2022-09-03T20:33:22.657Z,90.00
2022-09-03T20:35:59.914Z,90.90
2022-09-03T20:38:42.237Z,90.40
2022-09-03T20:41:09.297Z,90.80
2022-09-03T20:44:13.586Z,93.80
2022-09-03T20:46:50.195Z,93.40
2022-09-03T20:53:19.373Z,96.50
2022-09-03T20:55:50.322Z,95.30
2022-09-03T20:58:43.050Z,98.30
2022-09-03T21:01:17.674Z,99.40
2022-09-03T21:04:00.232Z,98.00
2022-09-03T21:07:18.221Z,98.70
2022-09-03T21:13:21.444Z,99.90
2022-09-03T21:16:16.568Z,99.20
2022-09-03T21:19:09.227Z,99.90
2022-09-03T21:21:59.639Z,99.70
2022-09-03T21:24:32.134Z,99.90
2022-09-03T21:27:08.371Z,99.90
2022-09-03T21:35:19.229Z,99.90
2022-09-03T21:37:58.734Z,99.90
2022-09-03T21:40:30.753Z,99.90
2022-09-03T21:43:28.504Z,99.90
2022-09-03T21:46:05.277Z,99.90
2022-09-03T21:48:35.242Z,99.90
2022-09-03T21:54:27.885Z,99.90
2022-09-03T21:57:07.096Z,99.90
2022-09-03T22:00:01.968Z,99.90
2022-09-03T22:02:40.013Z,99.90
2022-09-03T22:05:07.485Z,99.90
2022-09-03T22:08:05.686Z,99.90
2022-09-03T22:16:39.028Z,99.90
2022-09-03T22:19:08.826Z,99.90
2022-09-03T22:21:43.878Z,99.90
2022-09-03T22:24:23.986Z,99.90
2022-09-03T22:27:07.771Z,99.90
2022-09-03T22:30:02.481Z,99.90
2022-09-03T22:32:57.782Z,99.90
2022-09-03T22:38:30.416Z,99.90
2022-09-03T22:41:06.178Z,99.90
2022-09-03T22:43:42.320Z,99.90
2022-09-03T22:46:19.289Z,99.90
2022-09-03T22:49:12.696Z,99.90
2022-09-03T22:51:56.814Z,99.90
2022-09-03T22:54:51.486Z,99.90
2022-09-03T23:02:43.095Z,99.90
2022-09-03T23:05:38.215Z,99.90
2022-09-03T23:08:21.480Z,99.90
2022-09-03T23:11:07.430Z,99.90
2022-09-03T23:13:42.941Z,99.90
2022-09-03T23:16:23.370Z,99.90
2022-09-03T23:18:51.596Z,99.90
2022-09-03T23:26:44.369Z,99.90
2022-09-03T23:29:25.855Z,99.90
2022-09-03T23:31:57.048Z,99.90
2022-09-03T23:34:25.247Z,99.90
2022-09-03T23:37:32.399Z,99.90
2022-09-03T23:40:15.145Z,99.90
2022-09-03T23:49:09.193Z,99.90
2022-09-03T23:51:53.350Z,99.90
2022-09-03T23:54:42.155Z,99.90
2022-09-03T23:57:09.828Z,99.90
